Kagoshima Kohaku No7 — JD4100 — position and weather

sailwx.info

Track history (hours):
 
Tides and Currents Weather Stations Pressure Air Temp Water Temp Dewpoint Dewpoint Depression Visibility Wind Speed Wind Dir Waves Ship Positions

Kagoshima Kohaku No7

Last reported at 2018-Jun-21 08:50 UTC. Time now 2018-Jun-21 16:20 UTC.
Position N 35°15' E 139°46'.

Length 75 m; draft 4.1 m.

Type: Cargo ship. MMSI: 431008653.

Date/timePositionNaut miles runAvg speedWind from/ knotsBaromVisibWave heightAir tempDewpointWater temp
2018-Jun-21 08:50N 35°15' E 139°46'411.9
2018-Jun-21 08:30N 35°19' E 139°44'510.9
2018-Jun-21 08:00N 35°24' E 139°43'611.6
2018-Jun-21 07:30N 35°28' E 139°48'710.8
2018-Jun-21 06:53N 35°30' E 139°56'3 1.5
2018-Jun-21 05:13N 35°27' E 139°58'0 0.1
2018-Jun-21 04:33N 35°27' E 139°58'2 5.8
2018-Jun-21 04:10N 35°29' E 139°57'2 4.0
2018-Jun-21 03:33N 35°29' E 139°54'211.6
2018-Jun-21 03:24N 35°28' E 139°52'512.4
2018-Jun-21 03:00N 35°27' E 139°46'510.9
2018-Jun-21 02:30N 35°28' E 139°39'0 0.6
2018-Jun-21 02:00N 35°28' E 139°39'0 0.0
2018-Jun-20 07:09N 35°28' E 139°39'0 0.0
2018-Jun-20 07:00N 35°28' E 139°39'0 0.0
2018-Jun-20 06:30N 35°28' E 139°39'0 0.8
2018-Jun-20 06:00N 35°28' E 139°40'5 9.0
2018-Jun-20 05:30N 35°25' E 139°43'611.7
2018-Jun-20 05:00N 35°19' E 139°44'610.9
2018-Jun-20 04:28N 35°14' E 139°47'  
2018-Jun-17 09:24N 35°16' E 139°46'411.5
2018-Jun-17 09:00N 35°19' E 139°43'511.0
2018-Jun-17 08:30N 35°25' E 139°43'611.6
2018-Jun-17 08:00N 35°28' E 139°49'611.9
2018-Jun-17 07:30N 35°33' E 139°54'6 0.8
2018-Jun-17 00:01N 35°38' E 139°58'0 0.0
2018-Jun-17 00:00N 35°38' E 139°58'7 0.2
2018-Jun-15 12:36N 35°32' E 139°54'110.3
2018-Jun-15 12:30N 35°31' E 139°53'510.5
2018-Jun-15 12:00N 35°27' E 139°49'510.0
2018-Jun-15 11:30N 35°23' E 139°46'5 9.6
2018-Jun-15 11:00N 35°18' E 139°45'510.3
2018-Jun-15 10:30N 35°13' E 139°47'610.6
2018-Jun-15 09:58N 35°08' E 139°45'245 9.8
2018-Jun-14 09:00N 33°52' E 135°02'611.5
2018-Jun-14 08:30N 33°56' E 134°58'611.6
2018-Jun-14 08:00N 34°00' E 134°53'811.6
2018-Jun-14 07:19N 34°06' E 134°46'511.8
2018-Jun-14 06:54N 34°10' E 134°42'911.6
2018-Jun-14 06:07N 34°19' E 134°39'111.8
2018-Jun-14 06:00N 34°20' E 134°39'611.7
2018-Jun-14 05:31N 34°26' E 134°40'611.6
2018-Jun-14 05:01N 34°31' E 134°42'611.3
2018-Jun-14 04:31N 34°37' E 134°44'611.8
2018-Jun-14 04:01N 34°42' E 134°48'2 0.1
2018-Jun-13 02:51N 34°42' E 134°46'3 7.7
2018-Jun-13 02:31N 34°40' E 134°48'6 9.7
2018-Jun-13 01:55N 34°37' E 134°54'511.0
2018-Jun-13 01:25N 34°37' E 135°01'410.5
2018-Jun-13 01:01N 34°36' E 135°06'612.2
2018-Jun-13 00:31N 34°37' E 135°13'2 3.4
2018-Jun-13 00:00N 34°38' E 135°15'0 0.1
2018-Jun-12 23:31N 34°38' E 135°15'0 0.1
2018-Jun-12 23:01N 34°38' E 135°15'0 0.0
2018-Jun-12 22:29N 34°38' E 135°15'0 0.1
2018-Jun-12 22:01N 34°38' E 135°15'5 9.5
2018-Jun-12 21:30N 34°34' E 135°14'612.4
2018-Jun-12 21:01N 34°28' E 135°11'612.2
2018-Jun-12 20:30N 34°23' E 135°07'612.7
2018-Jun-12 20:01N 34°17' E 135°04'612.4
2018-Jun-12 19:31N 34°11' E 135°03'611.7
2018-Jun-12 19:00N 34°05' E 135°03'611.9
2018-Jun-12 18:30N 33°59' E 135°03'611.4
2018-Jun-12 17:58N 33°53' E 135°03'  
Track history (hours):
 
Tides and Currents Weather Stations Pressure Air Temp Water Temp Dewpoint Dewpoint Depression Visibility Wind Speed Wind Dir Waves Ship Positions

Kagoshima Kohaku No7

Last reported at 2018-Jun-21 08:50 UTC. Time now 2018-Jun-21 16:20 UTC.
Position N 35°15' E 139°46'.

Length 75 m; draft 4.1 m.

Type: Cargo ship. MMSI: 431008653.

Date/timePositionNaut miles runAvg speedWind from/ knotsBaromVisibWave heightAir tempDewpointWater temp
2018-Jun-21 08:50N 35°15' E 139°46'411.9
2018-Jun-21 08:30N 35°19' E 139°44'510.9
2018-Jun-21 08:00N 35°24' E 139°43'611.6
2018-Jun-21 07:30N 35°28' E 139°48'710.8
2018-Jun-21 06:53N 35°30' E 139°56'3 1.5
2018-Jun-21 05:13N 35°27' E 139°58'0 0.1
2018-Jun-21 04:33N 35°27' E 139°58'2 5.8
2018-Jun-21 04:10N 35°29' E 139°57'2 4.0
2018-Jun-21 03:33N 35°29' E 139°54'211.6
2018-Jun-21 03:24N 35°28' E 139°52'512.4
2018-Jun-21 03:00N 35°27' E 139°46'510.9
2018-Jun-21 02:30N 35°28' E 139°39'0 0.6
2018-Jun-21 02:00N 35°28' E 139°39'0 0.0
2018-Jun-20 07:09N 35°28' E 139°39'0 0.0
2018-Jun-20 07:00N 35°28' E 139°39'0 0.0
2018-Jun-20 06:30N 35°28' E 139°39'0 0.8
2018-Jun-20 06:00N 35°28' E 139°40'5 9.0
2018-Jun-20 05:30N 35°25' E 139°43'611.7
2018-Jun-20 05:00N 35°19' E 139°44'610.9
2018-Jun-20 04:28N 35°14' E 139°47'  
2018-Jun-17 09:24N 35°16' E 139°46'411.5
2018-Jun-17 09:00N 35°19' E 139°43'511.0
2018-Jun-17 08:30N 35°25' E 139°43'611.6
2018-Jun-17 08:00N 35°28' E 139°49'611.9
2018-Jun-17 07:30N 35°33' E 139°54'6 0.8
2018-Jun-17 00:01N 35°38' E 139°58'0 0.0
2018-Jun-17 00:00N 35°38' E 139°58'7 0.2
2018-Jun-15 12:36N 35°32' E 139°54'110.3
2018-Jun-15 12:30N 35°31' E 139°53'510.5
2018-Jun-15 12:00N 35°27' E 139°49'510.0
2018-Jun-15 11:30N 35°23' E 139°46'5 9.6
2018-Jun-15 11:00N 35°18' E 139°45'510.3
2018-Jun-15 10:30N 35°13' E 139°47'610.6
2018-Jun-15 09:58N 35°08' E 139°45'245 9.8
2018-Jun-14 09:00N 33°52' E 135°02'611.5
2018-Jun-14 08:30N 33°56' E 134°58'611.6
2018-Jun-14 08:00N 34°00' E 134°53'811.6
2018-Jun-14 07:19N 34°06' E 134°46'511.8
2018-Jun-14 06:54N 34°10' E 134°42'911.6
2018-Jun-14 06:07N 34°19' E 134°39'111.8
2018-Jun-14 06:00N 34°20' E 134°39'611.7
2018-Jun-14 05:31N 34°26' E 134°40'611.6
2018-Jun-14 05:01N 34°31' E 134°42'611.3
2018-Jun-14 04:31N 34°37' E 134°44'611.8
2018-Jun-14 04:01N 34°42' E 134°48'2 0.1
2018-Jun-13 02:51N 34°42' E 134°46'3 7.7
2018-Jun-13 02:31N 34°40' E 134°48'6 9.7
2018-Jun-13 01:55N 34°37' E 134°54'511.0
2018-Jun-13 01:25N 34°37' E 135°01'410.5
2018-Jun-13 01:01N 34°36' E 135°06'612.2
2018-Jun-13 00:31N 34°37' E 135°13'2 3.4
2018-Jun-13 00:00N 34°38' E 135°15'0 0.1
2018-Jun-12 23:31N 34°38' E 135°15'0 0.1
2018-Jun-12 23:01N 34°38' E 135°15'0 0.0
2018-Jun-12 22:29N 34°38' E 135°15'0 0.1
2018-Jun-12 22:01N 34°38' E 135°15'5 9.5
2018-Jun-12 21:30N 34°34' E 135°14'612.4
2018-Jun-12 21:01N 34°28' E 135°11'612.2
2018-Jun-12 20:30N 34°23' E 135°07'612.7
2018-Jun-12 20:01N 34°17' E 135°04'612.4
2018-Jun-12 19:31N 34°11' E 135°03'611.7
2018-Jun-12 19:00N 34°05' E 135°03'611.9
2018-Jun-12 18:30N 33°59' E 135°03'611.4
2018-Jun-12 17:58N 33°53' E 135°03'  

Dump ship's entire track history